Time;durP1;ratioP1;P1;durP2;ratioP2;P2;SDS_P1;SDS_P2;PMS_P1;PMS_P2;Temp;Humidity;BMP_temperature;BMP_pressure;BME280_temperature;BME280_humidity;BME280_pressure;Samples;Min_cycle;Max_cycle;Signal;HPM_P1;HPM_P2
2021/09/19 00:01:21;;;;;;;5.47;2.23;;;;;;;13.87;92.00;101368.09;5042934;28;20455;-82
2021/09/19 00:03:48;;;;;;;5.10;1.73;;;;;;;13.85;90.70;101364.03;5044614;28;20953;-82
2021/09/19 00:06:15;;;;;;;2.33;1.40;;;;;;;13.84;90.55;101368.69;5044750;28;20443;-82
2021/09/19 00:08:41;;;;;;;2.33;1.50;;;;;;;13.84;90.49;101373.31;5045515;28;20497;-81
2021/09/19 00:11:10;;;;;;;3.53;1.50;;;;;;;13.90;90.78;101366.69;5039424;28;20474;-81
2021/09/19 00:13:36;;;;;;;3.10;2.10;;;;;;;13.97;90.89;101360.81;5039013;28;20483;-81
2021/09/19 00:16:03;;;;;;;1.60;1.23;;;;;;;13.98;90.96;101370.59;5040053;28;20439;-81
2021/09/19 00:18:30;;;;;;;4.00;1.80;;;;;;;13.98;89.89;101371.38;5038835;28;20456;-81
2021/09/19 00:20:56;;;;;;;2.43;2.03;;;;;;;13.99;89.67;101375.75;5039514;28;20451;-81
2021/09/19 00:23:23;;;;;;;4.23;1.57;;;;;;;14.01;90.03;101376.25;5039909;28;20439;-81
2021/09/19 00:25:50;;;;;;;2.93;1.60;;;;;;;14.02;90.26;101368.88;5039236;28;20454;-81
2021/09/19 00:28:18;;;;;;;6.03;1.63;;;;;;;14.04;90.26;101362.00;5038512;28;20811;-79
2021/09/19 00:30:44;;;;;;;3.23;1.77;;;;;;;14.01;90.02;101361.81;5037421;28;20466;-79
2021/09/19 00:33:11;;;;;;;6.27;1.57;;;;;;;13.87;87.13;101359.91;5037495;28;20501;-79
2021/09/19 00:35:37;;;;;;;4.23;1.93;;;;;;;13.84;87.18;101357.78;5037888;28;20447;-80
2021/09/19 00:38:04;;;;;;;3.57;1.63;;;;;;;13.81;87.07;101357.59;5037822;28;20941;-79
2021/09/19 00:40:30;;;;;;;2.20;1.33;;;;;;;13.85;88.07;101359.38;5037910;28;20475;-79
2021/09/19 00:42:57;;;;;;;3.10;1.73;;;;;;;13.78;86.89;101353.56;5036990;28;20439;-79
2021/09/19 00:45:25;;;;;;;1.97;1.27;;;;;;;13.78;88.65;101352.75;5037756;28;20506;-80
2021/09/19 00:47:52;;;;;;;2.70;1.77;;;;;;;13.80;90.54;101355.97;5037335;28;20455;-79
2021/09/19 00:50:21;;;;;;;3.80;2.67;;;;;;;13.77;91.01;101343.00;5037924;28;20455;-79
2021/09/19 00:52:48;;;;;;;4.00;1.30;;;;;;;13.79;91.45;101344.28;5037471;28;20541;-79
2021/09/19 00:55:16;;;;;;;3.90;2.43;;;;;;;13.83;91.15;101345.28;5037101;28;20852;-79
2021/09/19 00:57:46;;;;;;;3.53;2.13;;;;;;;13.87;90.75;101346.28;5037513;28;20454;-80
2021/09/19 01:00:15;;;;;;;3.20;1.80;;;;;;;13.89;90.63;101344.06;5038035;28;20523;-79
2021/09/19 01:02:44;;;;;;;3.40;1.90;;;;;;;13.85;89.84;101340.34;5039204;28;20443;-80
2021/09/19 01:05:13;;;;;;;2.10;1.37;;;;;;;13.81;90.25;101343.97;5037830;28;20431;-78
2021/09/19 01:07:41;;;;;;;6.07;2.10;;;;;;;13.78;91.14;101334.50;5037154;28;20439;-79
2021/09/19 01:10:08;;;;;;;3.70;2.10;;;;;;;13.83;90.60;101339.03;5037376;28;20543;-79
2021/09/19 01:12:35;;;;;;;8.53;1.80;;;;;;;13.86;90.57;101333.78;5036286;28;21031;-79
2021/09/19 01:15:02;;;;;;;3.80;2.60;;;;;;;13.91;89.13;101341.06;5037158;28;20514;-79
2021/09/19 01:17:29;;;;;;;5.23;2.87;;;;;;;13.94;89.72;101334.97;5037016;28;20450;-80
2021/09/19 01:19:58;;;;;;;2.03;1.67;;;;;;;13.93;90.15;101333.38;5036458;28;20810;-79
2021/09/19 01:22:31;;;;;;;3.93;2.23;;;;;;;13.85;90.03;101337.59;5036383;28;20431;-79
2021/09/19 01:25:00;;;;;;;3.10;1.80;;;;;;;13.87;90.37;101331.88;5037041;28;20435;-79
2021/09/19 01:27:26;;;;;;;4.33;1.70;;;;;;;13.84;89.91;101330.56;5036910;28;20435;-79
2021/09/19 01:29:53;;;;;;;3.43;1.70;;;;;;;13.87;88.03;101334.59;5036615;28;20439;-79
2021/09/19 01:32:22;;;;;;;3.90;1.00;;;;;;;13.82;87.03;101332.78;5036157;28;20479;-79
2021/09/19 01:34:49;;;;;;;1.70;1.40;;;;;;;13.81;86.39;101335.78;5037389;28;20443;-79
2021/09/19 01:37:15;;;;;;;2.80;1.50;;;;;;;13.82;87.13;101326.53;5036700;28;20450;-79
2021/09/19 01:39:42;;;;;;;2.23;1.57;;;;;;;13.67;86.70;101326.84;5036980;28;20442;-79
2021/09/19 01:42:10;;;;;;;5.37;2.57;;;;;;;13.69;87.75;101325.44;5037111;28;21003;-79
2021/09/19 01:44:37;;;;;;;3.83;1.80;;;;;;;13.70;88.90;101318.88;5036781;28;20447;-79
2021/09/19 01:47:03;;;;;;;5.00;2.03;;;;;;;13.71;89.68;101319.69;5037005;28;20450;-79
2021/09/19 01:49:30;;;;;;;1.20;1.07;;;;;;;13.70;90.14;101321.59;5036943;28;20445;-80
2021/09/19 01:51:56;;;;;;;4.00;2.13;;;;;;;13.73;88.95;101317.47;5036841;28;20471;-79
2021/09/19 01:54:23;;;;;;;4.50;2.20;;;;;;;13.72;89.02;101316.63;5038151;28;20447;-80
2021/09/19 01:56:50;;;;;;;2.47;1.73;;;;;;;13.77;88.98;101315.75;5041554;28;20447;-79
2021/09/19 01:59:18;;;;;;;2.30;1.73;;;;;;;13.78;89.65;101314.63;5041098;28;20454;-79
2021/09/19 02:01:44;;;;;;;3.97;1.60;;;;;;;13.80;89.72;101321.38;5040787;28;20467;-79
2021/09/19 02:04:11;;;;;;;9.40;1.90;;;;;;;13.73;88.81;101318.28;5041705;28;20440;-79
2021/09/19 02:06:37;;;;;;;4.37;1.90;;;;;;;13.75;87.95;101313.31;5041018;28;20461;-80
2021/09/19 02:09:04;;;;;;;2.33;1.63;;;;;;;13.79;88.50;101310.81;5041051;28;20423;-80
2021/09/19 02:11:30;;;;;;;5.97;1.90;;;;;;;13.79;88.95;101316.25;5046217;28;20463;-80
2021/09/19 02:13:57;;;;;;;3.07;1.90;;;;;;;13.74;89.10;101308.19;5046512;28;20487;-80
2021/09/19 02:16:26;;;;;;;2.73;1.90;;;;;;;13.75;89.69;101312.50;5044693;28;20450;-80
2021/09/19 02:18:52;;;;;;;1.50;1.40;;;;;;;13.72;89.24;101313.91;5044260;28;20451;-80
2021/09/19 02:21:19;;;;;;;4.47;1.70;;;;;;;13.71;88.98;101309.59;5040457;28;20475;-80
2021/09/19 02:23:46;;;;;;;2.17;1.40;;;;;;;13.76;89.05;101305.94;5039758;28;20439;-80
2021/09/19 02:26:13;;;;;;;2.97;1.50;;;;;;;13.75;88.83;101298.91;5040447;28;20959;-80
2021/09/19 02:28:39;;;;;;;4.20;1.67;;;;;;;13.74;87.66;101298.09;5040364;28;20454;-79
2021/09/19 02:31:06;;;;;;;3.20;1.30;;;;;;;13.72;86.17;101294.06;5039959;28;20467;-80
2021/09/19 02:33:35;;;;;;;4.23;2.17;;;;;;;13.64;85.86;101292.88;5040687;28;20482;-80
2021/09/19 02:36:02;;;;;;;2.70;1.00;;;;;;;13.58;85.33;101300.31;5043768;28;20451;-79
2021/09/19 02:38:29;;;;;;;1.93;1.30;;;;;;;13.53;86.82;101299.63;5046617;28;20447;-80
2021/09/19 02:40:55;;;;;;;2.30;1.37;;;;;;;13.53;87.61;101299.63;5047661;28;20463;-79
2021/09/19 02:43:23;;;;;;;3.30;1.10;;;;;;;13.55;87.58;101300.94;5045210;28;20441;-79
2021/09/19 02:45:50;;;;;;;6.50;1.10;;;;;;;13.54;87.64;101298.50;5045450;28;20439;-79
2021/09/19 02:48:16;;;;;;;4.83;1.30;;;;;;;13.56;89.50;101296.31;5040751;28;20451;-79
2021/09/19 02:50:44;;;;;;;1.93;1.43;;;;;;;13.57;90.54;101292.47;5038368;28;20833;-79
2021/09/19 02:53:11;;;;;;;2.53;2.33;;;;;;;13.58;91.28;101300.31;5038855;28;20486;-79
2021/09/19 02:55:38;;;;;;;4.43;1.57;;;;;;;13.57;91.50;101298.72;5038901;28;20440;-79
2021/09/19 02:58:04;;;;;;;2.77;1.60;;;;;;;13.60;91.40;101298.13;5039093;28;20455;-79
2021/09/19 03:00:32;;;;;;;1.60;1.30;;;;;;;13.58;91.75;101305.75;5038783;28;20474;-79
2021/09/19 03:02:58;;;;;;;4.03;1.83;;;;;;;13.59;90.43;101301.97;5039154;28;20483;-79
2021/09/19 03:05:25;;;;;;;2.83;1.77;;;;;;;13.54;90.60;101296.59;5037603;28;20455;-79
2021/09/19 03:07:55;;;;;;;1.37;1.27;;;;;;;13.55;91.11;101309.13;5038452;28;20447;-79
2021/09/19 03:10:23;;;;;;;2.00;1.57;;;;;;;13.55;91.54;101300.94;5038349;28;20502;-79
2021/09/19 03:12:50;;;;;;;2.37;1.50;;;;;;;13.58;91.41;101299.53;5038000;28;20992;-79
2021/09/19 03:15:16;;;;;;;2.53;1.73;;;;;;;13.53;91.57;101296.91;5038076;28;20802;-79
2021/09/19 03:17:43;;;;;;;8.70;1.80;;;;;;;13.44;92.52;101301.44;5037811;28;20442;-79
2021/09/19 03:20:12;;;;;;;2.73;1.90;;;;;;;13.52;92.67;101292.56;5037237;28;20475;-79
2021/09/19 03:22:39;;;;;;;7.07;2.00;;;;;;;13.54;91.89;101296.59;5037938;28;20443;-79
2021/09/19 03:25:09;;;;;;;1.37;1.00;;;;;;;13.53;92.22;101292.25;5038043;28;20439;-79
2021/09/19 03:27:36;;;;;;;2.20;1.40;;;;;;;13.49;92.69;101295.91;5037885;28;20447;-79
2021/09/19 03:30:03;;;;;;;2.40;1.70;;;;;;;13.50;92.10;101294.78;5037628;28;20454;-79
2021/09/19 03:32:30;;;;;;;2.40;1.93;;;;;;;13.49;91.85;101295.91;5037367;28;20451;-79
2021/09/19 03:34:56;;;;;;;2.33;1.40;;;;;;;13.52;92.22;101295.28;5037607;28;20443;-79
2021/09/19 03:37:23;;;;;;;3.80;2.10;;;;;;;13.52;92.44;101295.28;5037216;28;20431;-79
2021/09/19 03:39:49;;;;;;;8.00;2.23;;;;;;;13.44;92.00;101302.25;5036652;28;20443;-79
2021/09/19 03:42:17;;;;;;;4.57;2.00;;;;;;;13.46;92.64;101291.88;5037607;28;20439;-79
2021/09/19 03:44:44;;;;;;;2.67;2.47;;;;;;;13.46;93.17;101291.06;5037384;28;20458;-79
2021/09/19 03:47:10;;;;;;;3.13;2.37;;;;;;;13.50;93.78;101302.94;5037351;28;20447;-79
2021/09/19 03:49:37;;;;;;;2.50;1.60;;;;;;;13.53;94.36;101302.34;5037434;28;20450;-79
2021/09/19 03:52:04;;;;;;;1.30;1.17;;;;;;;13.50;95.02;101300.22;5037598;28;20467;-79
2021/09/19 03:54:30;;;;;;;3.60;2.10;;;;;;;13.49;95.49;101301.34;5037264;28;20491;-79
2021/09/19 03:56:57;;;;;;;3.80;1.50;;;;;;;13.53;95.47;101313.22;5037194;28;20933;-79
2021/09/19 03:59:25;;;;;;;1.70;1.50;;;;;;;13.55;95.30;101308.31;5036985;28;20811;-79
2021/09/19 04:01:51;;;;;;;5.40;2.23;;;;;;;13.54;95.36;101307.47;5037467;28;20533;-79
2021/09/19 04:04:18;;;;;;;1.80;1.60;;;;;;;13.52;95.56;101315.16;5036910;28;20439;-79
2021/09/19 04:06:44;;;;;;;3.43;1.63;;;;;;;13.50;95.47;101302.94;5037352;28;20458;-80
2021/09/19 04:09:11;;;;;;;2.23;1.23;;;;;;;13.46;95.54;101308.22;5037504;28;20455;-80
2021/09/19 04:11:37;;;;;;;2.10;1.43;;;;;;;13.54;95.38;101304.75;5036816;28;20451;-80
2021/09/19 04:14:04;;;;;;;3.17;2.30;;;;;;;13.49;95.66;101306.78;5036705;28;20490;-79
2021/09/19 04:16:32;;;;;;;2.70;1.43;;;;;;;13.50;95.40;101314.66;5036544;28;20447;-80
2021/09/19 04:19:01;;;;;;;3.17;1.93;;;;;;;13.50;95.16;101316.56;5036300;28;20474;-80
2021/09/19 04:21:30;;;;;;;1.80;1.50;;;;;;;13.51;95.39;101320.91;5036330;28;20474;-79
2021/09/19 04:23:56;;;;;;;1.53;1.33;;;;;;;13.50;95.82;101320.09;5036534;28;20482;-80
2021/09/19 04:26:23;;;;;;;2.47;1.57;;;;;;;13.47;95.06;101319.91;5036163;28;20454;-79
2021/09/19 04:28:52;;;;;;;5.97;2.03;;;;;;;13.39;94.83;101315.97;5037982;28;20443;-78
2021/09/19 04:31:18;;;;;;;4.70;2.40;;;;;;;13.42;94.78;101323.53;5037179;28;20467;-77
2021/09/19 04:33:46;;;;;;;2.00;1.27;;;;;;;13.32;95.08;101324.50;5037037;28;20503;-78
2021/09/19 04:36:12;;;;;;;2.17;1.30;;;;;;;13.30;94.48;101326.72;5036858;28;20446;-78
2021/09/19 04:38:39;;;;;;;3.53;1.37;;;;;;;13.27;93.12;101331.97;5036491;28;20815;-77
2021/09/19 04:41:05;;;;;;;3.67;1.87;;;;;;;13.25;94.07;101329.56;5036270;28;20463;-77
2021/09/19 04:43:32;;;;;;;3.10;2.13;;;;;;;13.22;96.06;101332.88;5035822;28;20439;-77
2021/09/19 04:45:58;;;;;;;4.13;2.07;;;;;;;13.28;96.60;101333.56;5037487;28;20455;-78
2021/09/19 04:48:25;;;;;;;2.20;2.00;;;;;;;13.33;96.96;101328.88;5039175;28;20826;-78
2021/09/19 04:50:53;;;;;;;2.73;1.50;;;;;;;13.34;96.90;101330.47;5038954;28;20509;-78
2021/09/19 04:53:19;;;;;;;1.90;1.60;;;;;;;13.34;97.12;101326.94;5039634;28;20487;-78
2021/09/19 04:55:46;;;;;;;4.13;2.40;;;;;;;13.34;96.77;101333.19;5039865;28;20436;-78
2021/09/19 04:58:12;;;;;;;3.47;2.47;;;;;;;13.35;96.64;101334.00;5041377;28;20447;-78
2021/09/19 05:00:39;;;;;;;2.33;1.33;;;;;;;13.37;96.28;101326.34;5040827;28;20459;-78
2021/09/19 05:03:05;;;;;;;2.67;1.50;;;;;;;13.40;96.42;101325.72;5039642;28;20821;-79
2021/09/19 05:05:32;;;;;;;2.37;1.70;;;;;;;13.42;96.11;101339.06;5038267;28;20454;-79
2021/09/19 05:07:59;;;;;;;4.17;2.23;;;;;;;13.40;96.68;101336.63;5038818;28;20439;-79
2021/09/19 05:10:26;;;;;;;5.50;1.13;;;;;;;13.38;96.79;101331.47;5039102;28;20470;-79
2021/09/19 05:12:52;;;;;;;1.93;1.70;;;;;;;13.35;96.79;101334.78;5039247;28;20451;-78
2021/09/19 05:15:19;;;;;;;2.07;1.50;;;;;;;13.40;96.80;101335.81;5040580;28;20956;-78
2021/09/19 05:17:45;;;;;;;2.10;1.57;;;;;;;13.35;96.94;101334.78;5041071;28;20439;-79
2021/09/19 05:20:13;;;;;;;2.50;1.70;;;;;;;13.37;97.24;101327.16;5039981;28;20485;-78
2021/09/19 05:22:39;;;;;;;6.17;2.50;;;;;;;13.44;96.63;101325.94;5040154;28;20447;-79
2021/09/19 05:25:08;;;;;;;3.47;1.70;;;;;;;13.45;96.69;101319.38;5040080;28;20439;-79
2021/09/19 05:27:34;;;;;;;3.30;2.23;;;;;;;13.41;96.61;101331.97;5040175;28;20431;-79
2021/09/19 05:30:01;;;;;;;2.23;1.80;;;;;;;13.43;95.00;101329.78;5041179;28;20822;-81
2021/09/19 05:32:27;;;;;;;6.07;1.47;;;;;;;13.45;94.13;101333.00;5042625;28;20435;-80
2021/09/19 05:34:54;;;;;;;5.67;2.90;;;;;;;13.45;94.35;101322.91;5041214;28;20475;-81
2021/09/19 05:37:20;;;;;;;3.60;1.40;;;;;;;13.45;94.57;101325.63;5039725;28;20975;-78
2021/09/19 05:39:47;;;;;;;2.80;1.93;;;;;;;13.41;95.06;101326.53;5040863;28;20450;-78
2021/09/19 05:42:15;;;;;;;2.40;1.60;;;;;;;13.42;95.72;101325.44;5041165;28;20455;-78
2021/09/19 05:44:41;;;;;;;3.70;1.63;;;;;;;13.45;96.28;101319.38;5039549;28;20451;-78
2021/09/19 05:47:08;;;;;;;2.53;2.10;;;;;;;13.47;96.64;101328.06;5040308;28;20462;-78
2021/09/19 05:49:34;;;;;;;2.73;1.87;;;;;;;13.56;96.50;101326.25;5040518;28;20443;-78
2021/09/19 05:52:01;;;;;;;4.63;2.87;;;;;;;13.57;96.67;101330.56;5041266;28;20475;-78
2021/09/19 05:54:27;;;;;;;3.03;1.70;;;;;;;13.63;96.33;101341.06;5042292;28;20862;-78
2021/09/19 05:56:54;;;;;;;3.57;2.50;;;;;;;13.63;96.34;101341.06;5042484;28;20455;-78
2021/09/19 05:59:21;;;;;;;4.17;2.00;;;;;;;13.64;95.72;101339.16;5041446;28;20447;-78
2021/09/19 06:01:48;;;;;;;4.30;2.07;;;;;;;13.67;95.36;101338.53;5041541;28;20471;-78
2021/09/19 06:04:14;;;;;;;3.30;1.90;;;;;;;13.72;95.29;101341.16;5041753;28;20446;-78
2021/09/19 06:06:41;;;;;;;3.10;2.07;;;;;;;13.72;94.97;101341.16;5042052;28;20435;-79
2021/09/19 06:09:07;;;;;;;2.20;1.10;;;;;;;13.65;95.46;101338.03;5039009;28;20443;-79
2021/09/19 06:11:34;;;;;;;3.03;2.10;;;;;;;13.73;95.42;101339.25;5044501;28;20473;-79
2021/09/19 06:14:00;;;;;;;4.60;2.23;;;;;;;13.78;94.77;101337.22;5041940;28;20516;-79
2021/09/19 06:16:28;;;;;;;3.30;2.13;;;;;;;13.78;93.62;101331.78;5043490;28;20933;-79
2021/09/19 06:18:55;;;;;;;3.07;1.47;;;;;;;13.75;93.34;101335.09;5044791;28;20455;-79
2021/09/19 06:21:21;;;;;;;3.33;1.90;;;;;;;13.76;92.58;101333.97;5044559;28;20467;-79
2021/09/19 06:23:48;;;;;;;3.40;2.23;;;;;;;13.73;92.04;101329.16;5042265;28;20446;-79
2021/09/19 06:26:14;;;;;;;3.60;1.90;;;;;;;13.71;91.94;101336.00;5041887;28;20439;-79
2021/09/19 06:28:41;;;;;;;6.73;1.77;;;;;;;13.69;92.10;101341.78;5042226;28;20932;-79
2021/09/19 06:31:07;;;;;;;1.90;1.27;;;;;;;13.74;93.08;101333.50;5042893;28;20463;-79
2021/09/19 06:33:35;;;;;;;2.90;1.63;;;;;;;13.73;94.29;101337.34;5041026;28;20451;-79
2021/09/19 06:36:02;;;;;;;5.60;2.60;;;;;;;13.72;94.79;101335.69;5042089;28;20431;-80
2021/09/19 06:38:28;;;;;;;2.40;2.03;;;;;;;13.76;94.27;101331.25;5042980;28;20474;-80
2021/09/19 06:40:55;;;;;;;3.40;1.80;;;;;;;13.71;94.85;101338.75;5043279;28;20454;-80
2021/09/19 06:43:21;;;;;;;2.77;1.60;;;;;;;13.78;94.19;101339.16;5045955;28;20455;-79
2021/09/19 06:45:48;;;;;;;1.70;1.23;;;;;;;13.82;93.57;101338.22;5046085;28;20834;-80
2021/09/19 06:48:15;;;;;;;2.00;1.63;;;;;;;13.83;93.49;101326.22;5046566;28;20439;-80
2021/09/19 06:50:43;;;;;;;4.17;2.27;;;;;;;13.91;94.44;101329.34;5044934;28;20973;-79
2021/09/19 06:53:09;;;;;;;2.60;1.73;;;;;;;13.95;94.20;101333.09;5045973;28;20937;-79
2021/09/19 06:55:36;;;;;;;2.23;1.70;;;;;;;13.96;94.55;101326.53;5045451;28;20479;-80
2021/09/19 06:58:02;;;;;;;3.20;1.50;;;;;;;13.97;93.03;101339.00;5046347;28;20825;-80
2021/09/19 07:00:29;;;;;;;3.37;1.90;;;;;;;14.01;92.80;101334.56;5045716;28;20479;-79
2021/09/19 07:02:56;;;;;;;2.47;1.80;;;;;;;13.96;92.68;101342.84;5046142;28;20449;-80
2021/09/19 07:05:22;;;;;;;4.30;1.90;;;;;;;13.97;92.12;101350.72;5045222;28;20448;-80
2021/09/19 07:07:50;;;;;;;2.47;1.60;;;;;;;14.02;93.21;101349.81;5045371;28;20454;-80
2021/09/19 07:10:17;;;;;;;4.77;2.00;;;;;;;14.00;93.63;101349.31;5044604;28;20478;-79
2021/09/19 07:12:43;;;;;;;5.70;1.57;;;;;;;14.01;94.13;101346.28;5045579;28;20454;-79
2021/09/19 07:15:11;;;;;;;9.13;2.03;;;;;;;13.97;94.18;101349.91;5044195;28;21034;-80
2021/09/19 07:17:37;;;;;;;4.67;2.67;;;;;;;14.04;93.72;101340.22;5046397;28;20435;-80
2021/09/19 07:20:05;;;;;;;3.73;1.90;;;;;;;14.07;93.06;101344.25;5046461;28;20462;-80
2021/09/19 07:22:32;;;;;;;3.30;2.20;;;;;;;14.03;93.12;101349.50;5045898;28;20447;-81
2021/09/19 07:24:59;;;;;;;2.63;2.10;;;;;;;14.13;93.12;101346.56;5044698;28;20439;-79
2021/09/19 07:27:26;;;;;;;7.20;1.40;;;;;;;14.16;92.98;101356.03;5048225;28;20455;-80
2021/09/19 07:29:53;;;;;;;4.53;2.03;;;;;;;14.19;92.16;101341.00;5049771;28;20447;-80
2021/09/19 07:32:20;;;;;;;4.97;2.00;;;;;;;14.24;92.70;101349.06;5046295;28;20455;-80
2021/09/19 07:34:46;;;;;;;5.77;1.70;;;;;;;14.35;92.84;101345.78;5045652;28;20487;-80
2021/09/19 07:37:15;;;;;;;3.43;1.23;;;;;;;14.48;92.98;101351.53;5045400;28;20447;-80
2021/09/19 07:39:41;;;;;;;3.97;1.53;;;;;;;14.55;92.91;101352.72;5046155;28;20435;-80
2021/09/19 07:42:10;;;;;;;6.47;1.87;;;;;;;14.67;91.72;101352.16;5045922;28;20471;-80
2021/09/19 07:44:38;;;;;;;4.47;2.23;;;;;;;14.75;91.30;101354.16;5045693;28;20932;-80
2021/09/19 07:47:06;;;;;;;2.13;1.60;;;;;;;14.84;90.89;101352.28;5045189;28;20439;-79
2021/09/19 07:49:36;;;;;;;4.10;1.93;;;;;;;14.89;89.26;101354.88;5043070;28;20447;-80
2021/09/19 07:52:03;;;;;;;11.07;1.90;;;;;;;14.92;89.09;101352.66;5045580;28;20568;-80
2021/09/19 07:54:30;;;;;;;2.47;1.57;;;;;;;15.00;90.11;101346.44;5044579;28;20495;-80
2021/09/19 07:56:56;;;;;;;5.70;2.73;;;;;;;15.04;88.36;101341.97;5045817;28;20451;-79
2021/09/19 07:59:24;;;;;;;4.63;1.80;;;;;;;15.09;86.41;101341.84;5044723;28;20435;-79
2021/09/19 08:01:51;;;;;;;2.97;2.00;;;;;;;15.19;86.78;101347.06;5044254;28;20463;-81
2021/09/19 08:04:18;;;;;;;3.20;1.50;;;;;;;15.27;86.74;101340.00;5044834;28;20435;-81
2021/09/19 08:06:44;;;;;;;4.80;2.60;;;;;;;15.37;86.29;101342.47;5042838;28;20838;-78
2021/09/19 08:09:11;;;;;;;4.27;1.60;;;;;;;15.42;86.90;101341.53;5045320;28;20443;-79
2021/09/19 08:11:37;;;;;;;5.60;1.93;;;;;;;15.39;84.18;101341.03;5041116;28;20831;-78
2021/09/19 08:14:06;;;;;;;7.43;1.73;;;;;;;15.43;83.30;101340.41;5042323;28;20435;-79
2021/09/19 08:16:35;;;;;;;6.27;1.57;;;;;;;15.49;81.65;101345.41;5041881;28;20447;-78
2021/09/19 08:19:03;;;;;;;1.50;1.40;;;;;;;15.59;82.17;101349.78;5045197;28;20451;-79
2021/09/19 08:21:30;;;;;;;1.87;1.40;;;;;;;15.72;82.07;101351.63;5046236;28;20852;-80
2021/09/19 08:23:56;;;;;;;4.13;1.90;;;;;;;15.77;82.25;101356.94;5044758;28;20443;-79
2021/09/19 08:26:23;;;;;;;4.07;1.90;;;;;;;15.84;81.03;101353.75;5043984;28;20438;-80
2021/09/19 08:28:50;;;;;;;2.30;1.33;;;;;;;15.72;79.07;101354.38;5044870;28;20480;-79
2021/09/19 08:31:16;;;;;;;3.10;1.90;;;;;;;15.59;78.31;101356.06;5042439;28;20459;-79
2021/09/19 08:33:44;;;;;;;2.53;1.60;;;;;;;15.68;78.94;101361.59;5046110;28;20455;-80
2021/09/19 08:36:11;;;;;;;11.13;2.03;;;;;;;15.78;79.77;101357.75;5045423;28;20489;-79
2021/09/19 08:38:37;;;;;;;3.30;1.63;;;;;;;15.88;79.74;101357.44;5046979;28;20444;-79
2021/09/19 08:41:04;;;;;;;3.07;1.80;;;;;;;15.98;79.27;101351.72;5046941;28;21003;-79
2021/09/19 08:43:30;;;;;;;3.20;1.80;;;;;;;16.12;79.62;101357.03;5045135;28;20454;-80
2021/09/19 08:45:57;;;;;;;9.00;1.70;;;;;;;16.17;78.25;101358.81;5046592;28;20443;-78
2021/09/19 08:48:23;;;;;;;3.40;1.80;;;;;;;16.11;76.42;101369.06;5043177;28;20458;-79
2021/09/19 08:50:53;;;;;;;2.73;1.27;;;;;;;15.94;73.74;101374.50;5041660;28;20462;-78
2021/09/19 08:53:20;;;;;;;1.83;1.30;;;;;;;15.97;75.17;101371.94;5046179;28;20439;-79
2021/09/19 08:55:47;;;;;;;3.53;1.60;;;;;;;16.10;74.93;101373.72;5046891;28;20490;-79
2021/09/19 08:58:14;;;;;;;5.17;2.10;;;;;;;16.29;75.94;101369.91;5047390;28;20447;-79
2021/09/19 09:00:44;;;;;;;3.20;1.93;;;;;;;16.40;76.24;101380.22;5046356;28;20465;-79
2021/09/19 09:03:12;;;;;;;3.17;1.90;;;;;;;16.48;74.05;101377.81;5046046;28;20917;-79
2021/09/19 09:05:39;;;;;;;2.87;1.67;;;;;;;16.55;73.59;101378.13;5046370;28;20925;-79
2021/09/19 09:08:08;;;;;;;2.30;1.53;;;;;;;16.56;74.68;101385.22;5045286;28;20937;-79
2021/09/19 09:10:38;;;;;;;2.20;1.50;;;;;;;16.51;73.44;101388.09;5044723;28;20482;-79
2021/09/19 09:13:07;;;;;;;5.17;1.57;;;;;;;16.52;74.69;101386.97;5045476;28;20444;-79
2021/09/19 09:15:35;;;;;;;2.70;1.70;;;;;;;16.52;74.81;101386.97;5043534;28;20487;-79
2021/09/19 09:18:04;;;;;;;2.77;1.43;;;;;;;16.56;75.99;101393.41;5044880;28;20454;-79
2021/09/19 09:20:46;;;;;;;2.93;1.37;;;;;;;16.53;74.63;101389.38;5045186;28;20502;-79
2021/09/19 09:23:23;;;;;;;3.67;1.83;;;;;;;16.50;75.78;101389.22;5046190;28;20423;-79
2021/09/19 09:26:16;;;;;;;3.00;1.60;;;;;;;16.42;74.64;101392.75;5044583;28;20491;-78
2021/09/19 09:28:45;;;;;;;3.87;2.07;;;;;;;16.28;71.67;101385.50;5042061;28;20428;-79
2021/09/19 09:31:13;;;;;;;4.53;1.40;;;;;;;16.21;69.64;101387.13;5043092;28;20558;-79
2021/09/19 09:33:39;;;;;;;3.03;1.60;;;;;;;16.30;71.88;101385.19;5046514;28;20451;-79
2021/09/19 09:36:08;;;;;;;2.60;1.53;;;;;;;16.38;71.29;101373.47;5043417;28;20494;-79
2021/09/19 09:38:37;;;;;;;7.40;1.67;;;;;;;16.56;71.44;101382.47;5045497;28;20509;-80
2021/09/19 09:41:05;;;;;;;2.37;1.70;;;;;;;16.72;70.06;101374.56;5043397;28;20474;-81
2021/09/19 09:43:31;;;;;;;3.87;2.10;;;;;;;16.94;69.96;101381.81;5043806;28;20517;-80
2021/09/19 09:46:10;;;;;;;2.53;1.60;;;;;;;17.12;66.72;101380.66;5040940;28;20431;-81
2021/09/19 09:48:39;;;;;;;2.87;1.60;;;;;;;17.31;67.29;101375.63;5044930;28;20443;-80
2021/09/19 09:51:19;;;;;;;3.43;1.90;;;;;;;17.51;65.87;101368.63;5044640;28;20487;-80
2021/09/19 09:53:55;;;;;;;3.10;1.20;;;;;;;17.58;64.43;101371.66;5044929;28;20431;-80
2021/09/19 09:56:24;;;;;;;1.63;1.20;;;;;;;17.72;62.85;101370.63;5044990;28;20474;-80
2021/09/19 09:58:59;;;;;;;3.30;1.73;;;;;;;17.85;62.97;101366.88;5043891;28;20435;-81
2021/09/19 10:01:27;;;;;;;2.73;1.90;;;;;;;17.61;62.53;101370.19;5044136;28;20458;-79
2021/09/19 10:03:55;;;;;;;8.50;1.83;;;;;;;17.35;59.07;101359.31;5044576;28;20503;-79
2021/09/19 10:06:22;;;;;;;2.27;1.50;;;;;;;17.26;58.98;101356.63;5047020;28;20530;-79
2021/09/19 10:08:50;;;;;;;2.20;1.37;;;;;;;17.18;59.39;101364.84;5043437;28;20451;-79
2021/09/19 10:11:18;;;;;;;2.70;1.77;;;;;;;17.29;60.55;101358.72;5045339;28;20459;-80
2021/09/19 10:13:46;;;;;;;1.90;1.40;;;;;;;17.44;60.34;101356.56;5045064;28;20492;-80
2021/09/19 10:16:16;;;;;;;4.57;2.10;;;;;;;17.61;59.07;101357.28;5047751;28;20493;-80
2021/09/19 10:18:48;;;;;;;3.10;1.80;;;;;;;17.78;59.71;101356.44;5049079;28;20463;-80
2021/09/19 10:21:18;;;;;;;2.20;1.67;;;;;;;17.65;61.00;101357.44;5047606;28;20459;-80
2021/09/19 10:23:45;;;;;;;10.67;1.80;;;;;;;17.52;58.60;101358.47;5045075;28;20880;-80
2021/09/19 10:26:13;;;;;;;4.10;1.47;;;;;;;17.60;59.45;101354.88;5048966;28;20516;-80
2021/09/19 10:28:44;;;;;;;4.40;2.10;;;;;;;17.73;58.78;101353.06;5053766;22;20495;-69
2021/09/19 10:31:20;;;;;;;1.93;1.37;;;;;;;17.75;59.81;101359.84;5036710;28;20431;-68
2021/09/19 10:33:50;;;;;;;3.53;1.70;;;;;;;17.81;59.43;101354.97;5036477;28;20846;-68
2021/09/19 10:36:32;;;;;;;2.10;1.33;;;;;;;17.78;57.34;101358.38;5036286;28;20522;-68
2021/09/19 10:39:20;;;;;;;2.70;1.60;;;;;;;17.81;55.92;101360.47;5036486;28;20435;-68
2021/09/19 10:42:10;;;;;;;2.03;1.50;;;;;;;18.02;58.07;101361.31;5036186;28;20450;-68
2021/09/19 10:45:10;;;;;;;3.13;1.63;;;;;;;18.18;57.32;101360.72;5036209;28;20427;-69
2021/09/19 10:47:41;;;;;;;2.70;1.57;;;;;;;18.21;57.06;101363.59;5036170;28;20434;-69
2021/09/19 10:50:28;;;;;;;2.00;1.50;;;;;;;18.11;57.21;101362.06;5036292;28;20815;-68
2021/09/19 10:52:58;;;;;;;1.27;1.00;;;;;;;18.09;56.68;101361.56;5036098;28;20436;-68
2021/09/19 10:55:31;;;;;;;4.60;1.20;;;;;;;18.45;56.82;101353.88;5035464;28;21018;-68
2021/09/19 10:58:00;;;;;;;2.63;1.83;;;;;;;18.78;57.92;101354.75;5035942;28;20497;-68
2021/09/19 11:00:29;;;;;;;2.00;1.33;;;;;;;19.04;55.72;101349.00;5035710;28;20438;-68
2021/09/19 11:03:07;;;;;;;2.47;1.40;;;;;;;19.03;55.45;101344.63;5035694;28;20448;-68
2021/09/19 11:05:36;;;;;;;2.10;1.40;;;;;;;19.08;54.16;101343.63;5035684;28;20493;-69
2021/09/19 11:08:25;;;;;;;2.40;1.53;;;;;;;19.28;54.10;101345.50;5035662;28;20454;-69
2021/09/19 11:11:21;;;;;;;10.30;1.70;;;;;;;19.37;54.57;101348.94;5022842;28;21048;-70
2021/09/19 11:13:55;;;;;;;6.40;1.83;;;;;;;19.35;52.86;101348.50;5035327;28;20852;-68
2021/09/19 11:16:29;;;;;;;3.03;1.83;;;;;;;19.24;54.69;101354.75;5035360;28;20491;-68
2021/09/19 11:18:58;;;;;;;1.57;1.00;;;;;;;19.18;54.77;101345.16;5035433;28;20534;-68
2021/09/19 11:21:39;;;;;;;2.13;1.30;;;;;;;19.05;55.71;101341.56;5035381;28;20474;-68
2021/09/19 11:24:08;;;;;;;3.77;1.60;;;;;;;18.76;56.48;101348.78;5035082;28;20892;-69
2021/09/19 11:26:38;;;;;;;2.40;1.47;;;;;;;18.48;56.54;101345.00;5033889;28;20463;-68
2021/09/19 11:29:06;;;;;;;8.37;1.60;;;;;;;18.29;58.48;101343.53;5034745;28;20462;-69